• Join FlightAware (Why Join?)
  • Login
  • US Flag 
08:52AM EST


 

Airport Tracker/Info


-or-


 

Live Flight TrackerFlight Track Log ✈ N72AG ✈ 04-May-2012 ✈ KMLB - KBCT

Flight Track Log - Related Links

Times and Time Zones

All times are in EDT time to prevent confusion due to time zone crossing. See the N72AG flight status page for this flight to view local times or setup timezone preferences in your user account.

Time Position Orientation Groundspeed Altitude Reporting Facility
EDT Latitude Longitude Course Direction KTS MPH feet Rate Location/Type
04:10PM 28.1000 -80.6333 89° East 151 174 800  Level Orlando TRACON
04:11PM 28.1006 -80.5592 112° Southeast 217 250 4,600 1,680 Climbing Miami Center
04:12PM 28.0772 -80.4925 127° Southeast 224 258 4,900 120 Climbing Miami Center
04:13PM 28.0350 -80.4300 135° Southeast 235 270 4,900 840 Level Miami Center
04:14PM 27.9864 -80.3744 126° Southeast 245 282 6,600 1,620 Climbing Miami Center
04:15PM 27.9461 -80.3119 95° East 245 282 8,200 1,620 Climbing Miami Center
04:16PM 27.9397 -80.2319 160° South 235 270 9,900 840 Climbing Miami Center
04:17PM 27.8733 -80.2042 174° South 222 255 9,900  Level Miami Center
04:18PM 27.7986 -80.1947 174° South 238 274 10,000  Climbing Miami Center
04:19PM 27.7256 -80.1856 174° South 283 326 9,900 -60 Descending Miami Center
04:20PM 27.6403 -80.1761 174° South 289 333 9,900  Level Miami Center
04:21PM 27.5611 -80.1669 174° South 289 333 9,900  Level Miami Center
04:22PM 27.4842 -80.1575 175° South 289 333 9,900  Level Miami Center
04:23PM 27.4133 -80.1508 174° South 289 333 10,000  Climbing Miami Center
04:24PM 27.3361 -80.1417 176° South 289 333 9,900 -120 Descending Miami Center
04:25PM 27.2486 -80.1344 154° Southeast 284 327 9,800 -1,320 Descending Miami Center
04:26PM 27.1806 -80.0975 157° South 274 315 7,300 -2,280 Descending Miami Center
04:27PM 27.1144 -80.0653 157° South 269 310 5,300 -1,200 Descending Miami Center
04:28PM 27.0525 -80.0358 156° South 269 310 4,900 -240 Descending Miami Center
04:29PM 26.9844 -80.0011 194° South 274 315 4,900  Level Miami Center
04:30PM 26.9086 -80.0225 218° Southwest 251 289 4,900  Level Miami Center
04:31PM 26.8492 -80.0744 189° South 257 296 4,900 -540 Level Miami Center
04:35PM 26.5344 -80.1308 183° South 239 275 2,100 -660 Descending Miami Center
04:37PM 26.4550 -80.1356 182° South 237 273 1,500 -480 Descending Miami Center
04:38PM 26.3883 -80.1383 146° Southeast 200 230 1,000 -660 Descending Miami Center
04:39PM 26.3656 -80.1214 146° Southeast 134 154 200 -900 Descending Miami Center